sensor_id;sensor_type;location;lat;lon;timestamp;P1;durP1;ratioP1;P2;durP2;ratioP2
74457;SDS011;62896;51.032;3.712;2023-06-24T12:15:05;4.5;;;3;;
74457;SDS011;62896;51.032;3.712;2023-06-24T12:18:25;4.5;;;3;;
74457;SDS011;62896;51.032;3.712;2023-06-24T12:21:45;4.5;;;3;;
74457;SDS011;62896;51.032;3.712;2023-06-24T12:25:05;4.5;;;3;;
74457;SDS011;62896;51.032;3.712;2023-06-24T12:28:25;4.5;;;3;;
74457;SDS011;62896;51.032;3.712;2023-06-24T12:31:45;4.5;;;3;;
74457;SDS011;62896;51.032;3.712;2023-06-24T12:35:05;4.5;;;3;;
74457;SDS011;62896;51.032;3.712;2023-06-24T12:38:25;3.6;;;2.6;;
74457;SDS011;62896;51.032;3.712;2023-06-24T12:41:45;3.6;;;2.6;;
74457;SDS011;62896;51.032;3.712;2023-06-24T12:45:05;3.6;;;2.6;;
74457;SDS011;62896;51.032;3.712;2023-06-24T12:48:25;3.6;;;2.6;;
74457;SDS011;62896;51.032;3.712;2023-06-24T12:51:45;3.6;;;2.6;;
74457;SDS011;62896;51.032;3.712;2023-06-24T12:55:06;3.6;;;2.6;;
74457;SDS011;62896;51.032;3.712;2023-06-24T12:58:25;3.6;;;2.6;;
74457;SDS011;62896;51.032;3.712;2023-06-24T13:01:45;3.6;;;2.6;;
74457;SDS011;62896;51.032;3.712;2023-06-24T13:05:05;3.2;;;2.3;;
74457;SDS011;62896;51.032;3.712;2023-06-24T13:08:25;3.2;;;2.3;;
74457;SDS011;62896;51.032;3.712;2023-06-24T13:11:45;3.2;;;2.3;;
74457;SDS011;62896;51.032;3.712;2023-06-24T13:15:05;3.2;;;2.3;;
74457;SDS011;62896;51.032;3.712;2023-06-24T13:18:25;3.2;;;2.3;;
74457;SDS011;62896;51.032;3.712;2023-06-24T13:21:45;3.2;;;2.3;;
74457;SDS011;62896;51.032;3.712;2023-06-24T13:25:06;3.2;;;2.3;;
74457;SDS011;62896;51.032;3.712;2023-06-24T13:28:25;3.5;;;2.7;;
74457;SDS011;62896;51.032;3.712;2023-06-24T13:31:45;3.5;;;2.7;;
74457;SDS011;62896;51.032;3.712;2023-06-24T13:35:05;3.5;;;2.7;;
74457;SDS011;62896;51.032;3.712;2023-06-24T13:38:25;3.5;;;2.7;;
74457;SDS011;62896;51.032;3.712;2023-06-24T13:41:45;3.5;;;2.7;;
74457;SDS011;62896;51.032;3.712;2023-06-24T13:45:06;3.5;;;2.7;;
74457;SDS011;62896;51.032;3.712;2023-06-24T13:48:25;3.5;;;2.7;;
74457;SDS011;62896;51.032;3.712;2023-06-24T13:51:45;3.5;;;2.7;;
74457;SDS011;62896;51.032;3.712;2023-06-24T13:55:05;3.9;;;2.7;;
74457;SDS011;62896;51.032;3.712;2023-06-24T13:58:25;3.9;;;2.7;;
74457;SDS011;62896;51.032;3.712;2023-06-24T14:01:45;3.9;;;2.7;;
74457;SDS011;62896;51.032;3.712;2023-06-24T14:05:05;3.9;;;2.7;;
74457;SDS011;62896;51.032;3.712;2023-06-24T14:08:25;3.9;;;2.7;;
74457;SDS011;62896;51.032;3.712;2023-06-24T14:11:45;3.9;;;2.7;;
74457;SDS011;62896;51.032;3.712;2023-06-24T14:15:05;3.9;;;2.7;;
74457;SDS011;62896;51.032;3.712;2023-06-24T14:18:25;2.8;;;2.4;;
74457;SDS011;62896;51.032;3.712;2023-06-24T14:21:45;2.8;;;2.4;;
74457;SDS011;62896;51.032;3.712;2023-06-24T14:25:05;2.8;;;2.4;;
74457;SDS011;62896;51.032;3.712;2023-06-24T14:28:26;2.8;;;2.4;;
74457;SDS011;62896;51.032;3.712;2023-06-24T14:31:45;2.8;;;2.4;;
74457;SDS011;62896;51.032;3.712;2023-06-24T14:35:06;2.8;;;2.4;;
74457;SDS011;62896;51.032;3.712;2023-06-24T14:38:25;2.8;;;2.4;;
74457;SDS011;62896;51.032;3.712;2023-06-24T14:41:45;2.8;;;2.4;;
74457;SDS011;62896;51.032;3.712;2023-06-24T14:45:06;4.3;;;2.9;;
74457;SDS011;62896;51.032;3.712;2023-06-24T14:48:25;4.3;;;2.9;;
74457;SDS011;62896;51.032;3.712;2023-06-24T14:51:45;4.3;;;2.9;;
74457;SDS011;62896;51.032;3.712;2023-06-24T14:55:06;4.3;;;2.9;;
74457;SDS011;62896;51.032;3.712;2023-06-24T14:58:25;4.3;;;2.9;;
74457;SDS011;62896;51.032;3.712;2023-06-24T15:01:45;4.3;;;2.9;;
74457;SDS011;62896;51.032;3.712;2023-06-24T15:05:05;4.3;;;2.9;;
74457;SDS011;62896;51.032;3.712;2023-06-24T15:08:25;3.1;;;2.8;;
74457;SDS011;62896;51.032;3.712;2023-06-24T15:11:45;3.1;;;2.8;;
74457;SDS011;62896;51.032;3.712;2023-06-24T15:15:05;3.1;;;2.8;;
74457;SDS011;62896;51.032;3.712;2023-06-24T15:18:25;3.1;;;2.8;;
74457;SDS011;62896;51.032;3.712;2023-06-24T15:21:45;3.1;;;2.8;;
74457;SDS011;62896;51.032;3.712;2023-06-24T15:25:06;3.1;;;2.8;;
74457;SDS011;62896;51.032;3.712;2023-06-24T15:28:25;3.1;;;2.8;;
74457;SDS011;62896;51.032;3.712;2023-06-24T15:31:45;3.1;;;2.8;;
74457;SDS011;62896;51.032;3.712;2023-06-24T15:35:05;3.8;;;2.6;;
74457;SDS011;62896;51.032;3.712;2023-06-24T15:38:25;3.8;;;2.6;;
74457;SDS011;62896;51.032;3.712;2023-06-24T15:41:46;3.8;;;2.6;;
74457;SDS011;62896;51.032;3.712;2023-06-24T15:45:05;3.8;;;2.6;;
74457;SDS011;62896;51.032;3.712;2023-06-24T15:48:25;3.8;;;2.6;;
74457;SDS011;62896;51.032;3.712;2023-06-24T15:51:45;3.8;;;2.6;;
74457;SDS011;62896;51.032;3.712;2023-06-24T15:55:06;3.8;;;2.6;;
74457;SDS011;62896;51.032;3.712;2023-06-24T15:58:25;3.2;;;2.1;;
74457;SDS011;62896;51.032;3.712;2023-06-24T16:01:45;3.2;;;2.1;;
74457;SDS011;62896;51.032;3.712;2023-06-24T16:05:06;3.2;;;2.1;;
74457;SDS011;62896;51.032;3.712;2023-06-24T16:08:25;3.2;;;2.1;;
74457;SDS011;62896;51.032;3.712;2023-06-24T16:11:45;3.2;;;2.1;;
74457;SDS011;62896;51.032;3.712;2023-06-24T16:15:06;3.2;;;2.1;;
74457;SDS011;62896;51.032;3.712;2023-06-24T16:18:25;3.2;;;2.1;;
74457;SDS011;62896;51.032;3.712;2023-06-24T16:21:45;3.2;;;2.1;;
74457;SDS011;62896;51.032;3.712;2023-06-24T16:25:05;3.9;;;2.3;;
74457;SDS011;62896;51.032;3.712;2023-06-24T16:28:25;3.9;;;2.3;;
74457;SDS011;62896;51.032;3.712;2023-06-24T16:31:45;3.9;;;2.3;;
74457;SDS011;62896;51.032;3.712;2023-06-24T16:35:05;3.9;;;2.3;;
74457;SDS011;62896;51.032;3.712;2023-06-24T16:38:25;3.9;;;2.3;;
74457;SDS011;62896;51.032;3.712;2023-06-24T16:41:45;3.9;;;2.3;;
74457;SDS011;62896;51.032;3.712;2023-06-24T16:45:06;3.9;;;2.3;;
74457;SDS011;62896;51.032;3.712;2023-06-24T16:48:25;2.7;;;2.2;;
74457;SDS011;62896;51.032;3.712;2023-06-24T16:51:45;2.7;;;2.2;;
74457;SDS011;62896;51.032;3.712;2023-06-24T16:55:05;2.7;;;2.2;;
74457;SDS011;62896;51.032;3.712;2023-06-24T16:58:25;2.7;;;2.2;;
74457;SDS011;62896;51.032;3.712;2023-06-24T17:01:45;2.7;;;2.2;;
74457;SDS011;62896;51.032;3.712;2023-06-24T17:05:06;2.7;;;2.2;;
74457;SDS011;62896;51.032;3.712;2023-06-24T17:08:25;2.7;;;2.2;;
74457;SDS011;62896;51.032;3.712;2023-06-24T17:11:45;2.7;;;2.2;;
74457;SDS011;62896;51.032;3.712;2023-06-24T17:15:06;9.8;;;7.6;;
74457;SDS011;62896;51.032;3.712;2023-06-24T17:18:25;9.8;;;7.6;;
74457;SDS011;62896;51.032;3.712;2023-06-24T17:21:45;9.8;;;7.6;;
74457;SDS011;62896;51.032;3.712;2023-06-24T17:25:05;9.8;;;7.6;;
74457;SDS011;62896;51.032;3.712;2023-06-24T17:28:25;9.8;;;7.6;;
74457;SDS011;62896;51.032;3.712;2023-06-24T17:31:45;9.8;;;7.6;;
74457;SDS011;62896;51.032;3.712;2023-06-24T17:35:06;9.8;;;7.6;;
74457;SDS011;62896;51.032;3.712;2023-06-24T17:38:26;15.7;;;10;;
74457;SDS011;62896;51.032;3.712;2023-06-24T17:41:45;15.7;;;10;;
74457;SDS011;62896;51.032;3.712;2023-06-24T17:45:06;15.7;;;10;;
74457;SDS011;62896;51.032;3.712;2023-06-24T17:48:25;15.7;;;10;;
74457;SDS011;62896;51.032;3.712;2023-06-24T17:51:45;15.7;;;10;;
74457;SDS011;62896;51.032;3.712;2023-06-24T17:55:06;15.7;;;10;;
74457;SDS011;62896;51.032;3.712;2023-06-24T17:58:25;15.7;;;10;;
74457;SDS011;62896;51.032;3.712;2023-06-24T18:01:45;15.7;;;10;;
74457;SDS011;62896;51.032;3.712;2023-06-24T18:05:06;16.4;;;10.3;;
74457;SDS011;62896;51.032;3.712;2023-06-24T18:08:25;16.4;;;10.3;;
74457;SDS011;62896;51.032;3.712;2023-06-24T18:11:45;16.4;;;10.3;;
74457;SDS011;62896;51.032;3.712;2023-06-24T18:15:06;16.4;;;10.3;;
74457;SDS011;62896;51.032;3.712;2023-06-24T18:18:25;16.4;;;10.3;;
74457;SDS011;62896;51.032;3.712;2023-06-24T18:21:45;16.4;;;10.3;;
74457;SDS011;62896;51.032;3.712;2023-06-24T18:25:06;16.4;;;10.3;;
74457;SDS011;62896;51.032;3.712;2023-06-24T18:28:25;12.1;;;9.1;;
74457;SDS011;62896;51.032;3.712;2023-06-24T18:31:45;12.1;;;9.1;;
74457;SDS011;62896;51.032;3.712;2023-06-24T18:35:06;12.1;;;9.1;;
74457;SDS011;62896;51.032;3.712;2023-06-24T18:38:25;12.1;;;9.1;;
74457;SDS011;62896;51.032;3.712;2023-06-24T18:41:45;12.1;;;9.1;;
74457;SDS011;62896;51.032;3.712;2023-06-24T18:45:06;12.1;;;9.1;;
74457;SDS011;62896;51.032;3.712;2023-06-24T18:48:25;12.1;;;9.1;;
74457;SDS011;62896;51.032;3.712;2023-06-24T18:51:45;12.1;;;9.1;;
74457;SDS011;62896;51.032;3.712;2023-06-24T18:55:06;11.5;;;7.8;;
74457;SDS011;62896;51.032;3.712;2023-06-24T18:58:25;11.5;;;7.8;;
74457;SDS011;62896;51.032;3.712;2023-06-24T19:01:46;11.5;;;7.8;;
74457;SDS011;62896;51.032;3.712;2023-06-24T19:05:06;11.5;;;7.8;;
74457;SDS011;62896;51.032;3.712;2023-06-24T19:08:25;11.5;;;7.8;;
74457;SDS011;62896;51.032;3.712;2023-06-24T19:11:45;11.5;;;7.8;;
74457;SDS011;62896;51.032;3.712;2023-06-24T19:15:06;11.5;;;7.8;;
74457;SDS011;62896;51.032;3.712;2023-06-24T19:18:26;7.9;;;5.4;;
74457;SDS011;62896;51.032;3.712;2023-06-24T19:21:45;7.9;;;5.4;;
74457;SDS011;62896;51.032;3.712;2023-06-24T19:25:06;7.9;;;5.4;;
74457;SDS011;62896;51.032;3.712;2023-06-24T19:28:25;7.9;;;5.4;;
74457;SDS011;62896;51.032;3.712;2023-06-24T19:31:45;7.9;;;5.4;;
74457;SDS011;62896;51.032;3.712;2023-06-24T19:35:06;7.9;;;5.4;;
74457;SDS011;62896;51.032;3.712;2023-06-24T19:38:25;7.9;;;5.4;;
74457;SDS011;62896;51.032;3.712;2023-06-24T19:41:45;7.9;;;5.4;;
74457;SDS011;62896;51.032;3.712;2023-06-24T19:45:06;8.1;;;6.1;;
74457;SDS011;62896;51.032;3.712;2023-06-24T19:48:25;8.1;;;6.1;;
74457;SDS011;62896;51.032;3.712;2023-06-24T19:51:46;8.1;;;6.1;;
74457;SDS011;62896;51.032;3.712;2023-06-24T19:55:06;8.1;;;6.1;;
74457;SDS011;62896;51.032;3.712;2023-06-24T19:58:25;8.1;;;6.1;;
74457;SDS011;62896;51.032;3.712;2023-06-24T20:01:45;8.1;;;6.1;;
74457;SDS011;62896;51.032;3.712;2023-06-24T20:05:06;8.1;;;6.1;;
74457;SDS011;62896;51.032;3.712;2023-06-24T20:08:26;6.1;;;3.8;;
74457;SDS011;62896;51.032;3.712;2023-06-24T20:11:45;6.1;;;3.8;;
74457;SDS011;62896;51.032;3.712;2023-06-24T20:15:06;6.1;;;3.8;;
74457;SDS011;62896;51.032;3.712;2023-06-24T20:18:26;6.1;;;3.8;;
74457;SDS011;62896;51.032;3.712;2023-06-24T20:21:46;6.1;;;3.8;;
74457;SDS011;62896;51.032;3.712;2023-06-24T20:25:06;6.1;;;3.8;;
74457;SDS011;62896;51.032;3.712;2023-06-24T20:28:26;6.1;;;3.8;;
74457;SDS011;62896;51.032;3.712;2023-06-24T20:31:46;6.1;;;3.8;;
74457;SDS011;62896;51.032;3.712;2023-06-24T20:35:06;7.5;;;4.1;;
74457;SDS011;62896;51.032;3.712;2023-06-24T20:38:26;7.5;;;4.1;;
74457;SDS011;62896;51.032;3.712;2023-06-24T20:41:46;7.5;;;4.1;;
74457;SDS011;62896;51.032;3.712;2023-06-24T20:45:06;7.5;;;4.1;;
74457;SDS011;62896;51.032;3.712;2023-06-24T20:48:26;7.5;;;4.1;;
74457;SDS011;62896;51.032;3.712;2023-06-24T20:51:47;7.5;;;4.1;;
74457;SDS011;62896;51.032;3.712;2023-06-24T20:55:06;7.5;;;4.1;;
74457;SDS011;62896;51.032;3.712;2023-06-24T20:58:26;10.2;;;7.1;;
74457;SDS011;62896;51.032;3.712;2023-06-24T21:01:46;10.2;;;7.1;;
74457;SDS011;62896;51.032;3.712;2023-06-24T21:05:06;10.2;;;7.1;;
74457;SDS011;62896;51.032;3.712;2023-06-24T21:08:26;10.2;;;7.1;;
74457;SDS011;62896;51.032;3.712;2023-06-24T21:11:46;10.2;;;7.1;;
74457;SDS011;62896;51.032;3.712;2023-06-24T21:15:06;10.2;;;7.1;;
74457;SDS011;62896;51.032;3.712;2023-06-24T21:18:26;10.2;;;7.1;;
74457;SDS011;62896;51.032;3.712;2023-06-24T21:21:46;10.2;;;7.1;;
74457;SDS011;62896;51.032;3.712;2023-06-24T21:25:06;10.4;;;8.2;;
74457;SDS011;62896;51.032;3.712;2023-06-24T21:28:26;10.4;;;8.2;;
74457;SDS011;62896;51.032;3.712;2023-06-24T21:31:46;10.4;;;8.2;;
74457;SDS011;62896;51.032;3.712;2023-06-24T21:35:06;10.4;;;8.2;;
74457;SDS011;62896;51.032;3.712;2023-06-24T21:38:26;10.4;;;8.2;;
74457;SDS011;62896;51.032;3.712;2023-06-24T21:41:46;10.4;;;8.2;;
74457;SDS011;62896;51.032;3.712;2023-06-24T21:45:06;10.4;;;8.2;;
74457;SDS011;62896;51.032;3.712;2023-06-24T21:48:26;11.6;;;8.6;;
74457;SDS011;62896;51.032;3.712;2023-06-24T21:51:46;11.6;;;8.6;;
74457;SDS011;62896;51.032;3.712;2023-06-24T21:55:06;11.6;;;8.6;;
74457;SDS011;62896;51.032;3.712;2023-06-24T21:58:26;11.6;;;8.6;;
74457;SDS011;62896;51.032;3.712;2023-06-24T22:01:46;11.6;;;8.6;;
74457;SDS011;62896;51.032;3.712;2023-06-24T22:05:06;11.6;;;8.6;;
74457;SDS011;62896;51.032;3.712;2023-06-24T22:08:26;11.6;;;8.6;;
74457;SDS011;62896;51.032;3.712;2023-06-24T22:11:46;11.6;;;8.6;;
74457;SDS011;62896;51.032;3.712;2023-06-24T22:15:06;10.3;;;8.2;;
74457;SDS011;62896;51.032;3.712;2023-06-24T22:18:26;10.3;;;8.2;;
74457;SDS011;62896;51.032;3.712;2023-06-24T22:21:46;10.3;;;8.2;;
74457;SDS011;62896;51.032;3.712;2023-06-24T22:25:06;10.3;;;8.2;;
74457;SDS011;62896;51.032;3.712;2023-06-24T22:28:26;10.3;;;8.2;;
74457;SDS011;62896;51.032;3.712;2023-06-24T22:31:46;10.3;;;8.2;;
74457;SDS011;62896;51.032;3.712;2023-06-24T22:35:06;10.3;;;8.2;;
74457;SDS011;62896;51.032;3.712;2023-06-24T22:38:26;12.4;;;8.7;;
74457;SDS011;62896;51.032;3.712;2023-06-24T22:41:46;12.4;;;8.7;;
74457;SDS011;62896;51.032;3.712;2023-06-24T22:45:06;12.4;;;8.7;;
74457;SDS011;62896;51.032;3.712;2023-06-24T22:48:26;12.4;;;8.7;;
74457;SDS011;62896;51.032;3.712;2023-06-24T22:51:46;12.4;;;8.7;;
74457;SDS011;62896;51.032;3.712;2023-06-24T22:55:06;12.4;;;8.7;;
74457;SDS011;62896;51.032;3.712;2023-06-24T22:58:26;12.4;;;8.7;;
74457;SDS011;62896;51.032;3.712;2023-06-24T23:01:46;12.4;;;8.7;;
74457;SDS011;62896;51.032;3.712;2023-06-24T23:05:06;10.6;;;8.4;;
74457;SDS011;62896;51.032;3.712;2023-06-24T23:08:26;10.6;;;8.4;;
74457;SDS011;62896;51.032;3.712;2023-06-24T23:11:46;10.6;;;8.4;;
74457;SDS011;62896;51.032;3.712;2023-06-24T23:15:06;10.6;;;8.4;;
74457;SDS011;62896;51.032;3.712;2023-06-24T23:18:26;10.6;;;8.4;;
74457;SDS011;62896;51.032;3.712;2023-06-24T23:21:46;10.6;;;8.4;;
74457;SDS011;62896;51.032;3.712;2023-06-24T23:25:06;10.6;;;8.4;;
74457;SDS011;62896;51.032;3.712;2023-06-24T23:28:26;10.4;;;6.7;;
74457;SDS011;62896;51.032;3.712;2023-06-24T23:31:46;10.4;;;6.7;;
74457;SDS011;62896;51.032;3.712;2023-06-24T23:35:07;10.4;;;6.7;;
74457;SDS011;62896;51.032;3.712;2023-06-24T23:38:26;10.4;;;6.7;;
74457;SDS011;62896;51.032;3.712;2023-06-24T23:41:46;10.4;;;6.7;;
74457;SDS011;62896;51.032;3.712;2023-06-24T23:45:06;10.4;;;6.7;;
74457;SDS011;62896;51.032;3.712;2023-06-24T23:48:26;10.4;;;6.7;;
74457;SDS011;62896;51.032;3.712;2023-06-24T23:51:46;10.4;;;6.7;;
74457;SDS011;62896;51.032;3.712;2023-06-24T23:55:06;12;;;9.6;;
74457;SDS011;62896;51.032;3.712;2023-06-24T23:58:26;12;;;9.6;;
